Time;durP1;ratioP1;P1;durP2;ratioP2;P2;SDS_P1;SDS_P2;PMS_P1;PMS_P2;Temp;Humidity;BMP_temperature;BMP_pressure;BME280_temperature;BME280_humidity;BME280_pressure;Samples;Min_cycle;Max_cycle;Signal;HPM_P1;HPM_P2
2022/05/30 00:02:14;;;;;;;4.30;2.30;;;;;;;15.11;54.78;99484.76;108172;1286;137705;-58
2022/05/30 00:04:41;;;;;;;3.60;1.90;;;;;;;15.10;54.98;99486.48;108262;1286;22510;-58
2022/05/30 00:07:08;;;;;;;5.70;2.10;;;;;;;15.09;55.14;99488.50;108048;1286;137845;-59
2022/05/30 00:09:35;;;;;;;5.40;1.90;;;;;;;15.08;55.42;99484.77;108081;1287;22447;-58
2022/05/30 00:12:02;;;;;;;5.30;2.00;;;;;;;15.07;55.73;99482.32;108091;1287;23473;-58
2022/05/30 00:14:29;;;;;;;4.40;2.00;;;;;;;15.06;55.99;99481.16;107974;1287;138782;-58
2022/05/30 00:16:56;;;;;;;2.60;1.70;;;;;;;15.04;56.15;99476.41;108089;1287;22610;-58
2022/05/30 00:19:23;;;;;;;4.20;2.50;;;;;;;15.03;56.36;99471.80;107967;1286;138144;-58
2022/05/30 00:21:52;;;;;;;6.30;2.60;;;;;;;15.03;56.63;99467.36;108171;1286;22573;-59
2022/05/30 00:24:19;;;;;;;4.30;2.00;;;;;;;15.02;56.75;99470.72;108221;1286;22466;-59
2022/05/30 00:26:46;;;;;;;2.80;1.80;;;;;;;15.00;57.00;99470.81;107922;1286;139716;-59
2022/05/30 00:29:13;;;;;;;3.10;1.80;;;;;;;15.00;57.28;99472.74;108125;1286;22456;-59
2022/05/30 00:31:39;;;;;;;6.00;2.00;;;;;;;14.99;57.76;99470.11;108122;1287;137424;-59
2022/05/30 00:34:06;;;;;;;2.30;1.70;;;;;;;14.98;57.96;99471.60;108004;1287;22435;-59
2022/05/30 00:36:33;;;;;;;2.50;1.90;;;;;;;14.98;58.31;99467.75;108119;1286;138897;-59
2022/05/30 00:39:00;;;;;;;2.90;1.90;;;;;;;14.98;58.80;99466.34;108127;1286;22480;-60
2022/05/30 00:41:27;;;;;;;3.60;1.90;;;;;;;14.97;59.03;99465.73;108210;1287;22454;-59
2022/05/30 00:43:54;;;;;;;3.10;2.40;;;;;;;14.97;59.01;99468.86;108067;1287;137165;-59
2022/05/30 00:46:20;;;;;;;6.20;2.20;;;;;;;14.95;59.11;99465.25;107792;1289;22513;-59
2022/05/30 00:48:53;;;;;;;3.80;2.00;;;;;;;14.95;59.33;99459.77;107926;1287;137096;-59
2022/05/30 00:51:22;;;;;;;4.60;2.50;;;;;;;14.93;59.50;99458.64;107969;1288;22532;-59
2022/05/30 00:53:51;;;;;;;2.90;1.80;;;;;;;14.92;59.61;99452.70;108132;1287;22504;-59
2022/05/30 00:56:18;;;;;;;4.30;2.00;;;;;;;14.91;59.95;99441.91;107918;1287;137433;-59
2022/05/30 00:58:49;;;;;;;4.20;2.50;;;;;;;14.89;60.18;99428.48;108145;1286;22477;-59
2022/05/30 01:01:17;;;;;;;7.40;2.60;;;;;;;14.88;60.55;99414.00;107809;1286;139024;-59
2022/05/30 01:07:13;;;;;;;8.00;2.30;;;;;;;14.82;61.73;99401.79;107530;1291;137590;-59
2022/05/30 01:09:44;;;;;;;5.60;3.20;;;;;;;14.80;62.23;99397.25;107465;1292;23164;-59
2022/05/30 01:12:11;;;;;;;6.20;2.50;;;;;;;14.78;62.38;99392.66;108252;1284;22476;-59
2022/05/30 01:14:41;;;;;;;4.90;2.30;;;;;;;14.76;62.46;99384.83;108243;1284;138232;-59
2022/05/30 01:17:12;;;;;;;5.40;2.80;;;;;;;14.73;62.80;99372.06;108088;1285;22492;-59
2022/05/30 01:19:59;;;;;;;6.40;2.20;;;;;;;14.69;63.47;99363.46;108045;1286;139763;-59
2022/05/30 01:22:44;;;;;;;3.90;2.40;;;;;;;14.65;63.77;99347.88;108113;1286;22447;-59
2022/05/30 01:25:31;;;;;;;3.10;2.30;;;;;;;14.61;64.01;99351.25;108048;1286;138040;-57
2022/05/30 01:28:39;;;;;;;3.90;2.40;;;;;;;14.57;64.45;99359.34;108029;1286;22484;-59
2022/05/30 01:31:07;;;;;;;3.20;2.00;;;;;;;14.54;64.79;99361.02;107895;1286;139021;-59
2022/05/30 01:33:34;;;;;;;3.60;2.30;;;;;;;14.52;64.77;99367.19;108310;1286;22507;-58
2022/05/30 01:36:01;;;;;;;3.60;2.20;;;;;;;14.49;65.11;99369.16;108236;1284;22857;-59
2022/05/30 01:38:28;;;;;;;7.20;2.20;;;;;;;14.47;65.30;99364.73;108431;1282;137763;-59
2022/05/30 01:40:56;;;;;;;2.90;2.10;;;;;;;14.43;65.54;99362.09;108595;1282;22444;-59
2022/05/30 01:43:23;;;;;;;3.60;2.20;;;;;;;14.38;65.77;99362.23;108383;1282;137956;-59
2022/05/30 01:45:55;;;;;;;3.70;2.50;;;;;;;14.34;65.79;99363.67;108587;1282;22540;-59
2022/05/30 01:48:23;;;;;;;8.20;2.30;;;;;;;14.30;66.03;99367.33;108541;1283;22440;-60
2022/05/30 01:50:50;;;;;;;5.30;2.10;;;;;;;14.25;66.26;99369.18;108666;1282;139030;-58
2022/05/30 01:53:24;;;;;;;5.30;2.50;;;;;;;14.21;66.45;99366.24;108541;1282;22465;-59
2022/05/30 01:56:29;;;;;;;10.20;3.10;;;;;;;14.14;66.99;99367.82;108333;1281;138622;-59
2022/05/30 01:58:58;;;;;;;5.80;3.00;;;;;;;14.09;67.12;99368.85;108599;1281;22465;-59
2022/05/30 02:01:47;;;;;;;3.30;2.20;;;;;;;14.06;67.58;99371.44;108456;1281;138875;-58
2022/05/30 02:04:15;;;;;;;6.00;2.80;;;;;;;14.04;67.69;99371.73;108886;1281;22540;-59
2022/05/30 02:06:42;;;;;;;7.00;2.90;;;;;;;14.02;68.29;99372.29;108613;1281;138087;-59
2022/05/30 02:09:10;;;;;;;7.00;3.00;;;;;;;14.00;68.91;99362.39;108504;1282;22573;-59
2022/05/30 02:11:37;;;;;;;5.50;3.20;;;;;;;13.98;69.47;99357.86;108597;1281;22443;-58
2022/05/30 02:14:20;;;;;;;4.20;2.70;;;;;;;13.97;69.73;99355.08;108451;1281;137889;-58
2022/05/30 02:17:00;;;;;;;7.90;3.00;;;;;;;13.97;70.37;99348.02;108842;1280;23614;-58
2022/05/30 02:19:37;;;;;;;3.60;2.80;;;;;;;13.96;70.62;99346.10;108560;1280;140218;-58
2022/05/30 02:22:08;;;;;;;4.70;2.80;;;;;;;13.95;71.11;99348.85;108861;1280;23485;-58
2022/05/30 02:24:35;;;;;;;4.40;2.90;;;;;;;13.94;71.34;99350.11;108735;1280;138544;-58
2022/05/30 02:27:02;;;;;;;7.10;3.40;;;;;;;13.94;71.51;99342.88;108776;1280;22589;-59
2022/05/30 02:29:29;;;;;;;6.00;2.90;;;;;;;13.94;71.77;99341.73;108609;1281;23326;-58
2022/05/30 02:31:58;;;;;;;3.70;3.10;;;;;;;13.94;72.19;99326.66;108410;1282;139142;-58
2022/05/30 02:37:10;;;;;;;5.60;3.10;;;;;;;13.93;72.59;99331.60;108513;1280;140017;-59
2022/05/30 02:39:38;;;;;;;4.80;2.70;;;;;;;13.92;72.72;99329.14;108646;1280;22452;-59
2022/05/30 02:42:23;;;;;;;5.10;3.10;;;;;;;13.88;72.97;99332.44;108711;1281;22463;-58
2022/05/30 02:44:51;;;;;;;4.30;3.20;;;;;;;13.86;73.47;99340.40;108613;1281;137575;-59
2022/05/30 02:47:17;;;;;;;6.40;3.20;;;;;;;13.85;73.27;99349.80;108871;1280;22571;-59
2022/05/30 02:49:49;;;;;;;3.40;2.70;;;;;;;13.83;73.80;99358.63;108678;1280;138660;-59
2022/05/30 02:52:16;;;;;;;6.80;3.40;;;;;;;13.84;73.86;99362.67;108715;1281;23717;-59
2022/05/30 02:54:43;;;;;;;5.80;3.50;;;;;;;13.84;74.40;99359.99;108763;1280;138483;-59
2022/05/30 02:57:19;;;;;;;5.30;3.20;;;;;;;13.82;74.61;99352.66;108531;1281;23399;-59
2022/05/30 02:59:45;;;;;;;5.10;3.00;;;;;;;13.81;74.75;99359.89;108601;1281;22411;-59
2022/05/30 03:02:12;;;;;;;5.40;3.40;;;;;;;13.81;75.15;99371.61;108561;1280;137963;-59
2022/05/30 03:04:39;;;;;;;5.40;3.30;;;;;;;13.80;75.36;99371.06;108694;1281;22558;-58
2022/05/30 03:07:07;;;;;;;8.30;3.60;;;;;;;13.77;75.60;99368.94;108676;1281;138218;-59
2022/05/30 03:09:34;;;;;;;5.30;3.40;;;;;;;13.76;75.89;99371.20;108516;1282;23392;-60
2022/05/30 03:12:07;;;;;;;6.50;3.60;;;;;;;13.75;75.92;99384.77;108860;1280;23550;-59
2022/05/30 03:14:34;;;;;;;5.60;3.60;;;;;;;13.74;76.23;99393.81;108857;1279;139848;-59
2022/05/30 03:17:01;;;;;;;6.60;3.70;;;;;;;13.73;76.50;99399.68;108730;1280;22230;-59
2022/05/30 03:19:28;;;;;;;6.20;3.10;;;;;;;13.73;76.53;99407.63;108613;1281;139034;-59
2022/05/30 03:21:56;;;;;;;4.30;3.30;;;;;;;13.73;76.83;99411.56;108839;1280;22588;-59
2022/05/30 03:24:23;;;;;;;5.70;3.60;;;;;;;13.74;76.84;99417.04;108637;1280;23128;-59
2022/05/30 03:26:50;;;;;;;5.50;3.20;;;;;;;13.75;77.10;99406.52;108735;1279;139136;-59
2022/05/30 03:29:19;;;;;;;6.20;3.70;;;;;;;13.76;77.24;99403.34;108818;1280;22395;-58
2022/05/30 03:31:47;;;;;;;7.70;4.40;;;;;;;13.77;77.47;99394.35;108569;1280;139840;-58
2022/05/30 03:34:14;;;;;;;5.80;3.60;;;;;;;13.78;77.69;99384.23;108950;1279;22468;-59
2022/05/30 03:36:41;;;;;;;;;;;;;;;13.76;77.93;99376.83;108784;1279;139849;-59
2022/05/30 03:39:08;;;;;;;5.00;3.60;;;;;;;13.76;77.99;99379.52;108974;1278;22577;-58
2022/05/30 03:41:54;;;;;;;6.30;3.60;;;;;;;13.75;78.30;99375.41;108826;1280;23190;-59
2022/05/30 03:44:31;;;;;;;7.60;3.80;;;;;;;13.74;78.48;99371.02;108565;1280;138078;-58
2022/05/30 03:46:58;;;;;;;6.40;3.70;;;;;;;13.74;78.46;99357.13;108640;1280;22438;-59
2022/05/30 03:49:25;;;;;;;8.70;4.20;;;;;;;13.77;78.49;99346.66;108749;1280;139760;-58
2022/05/30 03:51:52;;;;;;;6.10;3.70;;;;;;;13.79;78.67;99341.83;108939;1280;22522;-59
2022/05/30 03:54:19;;;;;;;7.90;4.20;;;;;;;13.81;78.63;99344.61;108644;1280;24389;-59
2022/05/30 03:56:46;;;;;;;5.70;3.90;;;;;;;13.84;78.53;99342.14;108839;1280;139697;-58
2022/05/30 03:59:14;;;;;;;9.50;3.90;;;;;;;13.87;78.58;99327.47;108757;1278;22476;-59
2022/05/30 04:01:41;;;;;;;4.50;3.50;;;;;;;13.88;78.41;99318.42;108741;1279;138279;-59
2022/05/30 04:04:08;;;;;;;5.60;4.30;;;;;;;13.88;78.17;99325.98;108702;1281;22444;-58
2022/05/30 04:06:37;;;;;;;5.70;4.40;;;;;;;13.90;78.39;99337.86;108774;1280;138178;-58
2022/05/30 04:09:03;;;;;;;6.30;3.80;;;;;;;13.91;78.83;99344.98;108847;1280;22454;-58
2022/05/30 04:11:49;;;;;;;5.00;4.30;;;;;;;13.90;78.94;99335.23;108736;1281;22539;-58
2022/05/30 04:14:21;;;;;;;8.00;4.40;;;;;;;13.91;79.22;99334.56;108643;1280;139140;-59
2022/05/30 04:16:59;;;;;;;7.80;5.20;;;;;;;13.90;79.44;99328.06;108877;1280;22592;-58
2022/05/30 04:19:26;;;;;;;6.10;4.40;;;;;;;13.87;79.76;99316.30;108863;1279;138583;-58
2022/05/30 04:21:53;;;;;;;5.60;4.60;;;;;;;13.91;79.52;99317.10;108817;1280;22549;-58
2022/05/30 04:24:29;;;;;;;9.00;4.90;;;;;;;13.92;79.85;99317.20;108808;1280;22459;-58
2022/05/30 04:26:59;;;;;;;5.30;4.80;;;;;;;13.92;80.04;99320.05;108721;1280;22425;-59
2022/05/30 04:29:26;;;;;;;7.80;5.40;;;;;;;13.92;79.80;99318.73;108641;1280;22478;-58
2022/05/30 04:32:13;;;;;;;8.40;5.60;;;;;;;13.93;80.00;99331.22;108716;1279;138617;-58
2022/05/30 04:34:40;;;;;;;11.50;5.90;;;;;;;13.93;80.05;99343.55;108711;1281;22449;-58
2022/05/30 04:37:06;;;;;;;6.50;5.80;;;;;;;13.93;80.34;99341.41;108609;1280;140497;-59
2022/05/30 04:39:34;;;;;;;12.60;6.30;;;;;;;13.92;80.53;99345.02;108933;1280;22650;-59
2022/05/30 04:42:27;;;;;;;7.40;6.00;;;;;;;13.89;81.01;99344.93;108871;1280;22472;-59
2022/05/30 04:45:13;;;;;;;6.20;5.40;;;;;;;13.88;81.01;99356.55;108765;1280;23256;-58
2022/05/30 04:48:00;;;;;;;6.80;5.30;;;;;;;13.88;81.17;99369.31;108725;1281;23026;-59
2022/05/30 04:50:28;;;;;;;8.90;5.50;;;;;;;13.88;81.20;99376.54;108572;1280;138005;-59
2022/05/30 04:52:55;;;;;;;6.60;5.80;;;;;;;13.89;81.37;99374.29;108714;1279;22428;-59
2022/05/30 04:55:54;;;;;;;8.30;5.40;;;;;;;13.91;82.06;99368.48;108424;1280;138277;-58
2022/05/30 04:58:37;;;;;;;6.90;5.70;;;;;;;13.90;82.34;99375.55;108726;1280;22617;-59
2022/05/30 05:01:09;;;;;;;8.10;6.30;;;;;;;13.88;82.64;99390.95;108695;1280;138726;-59
2022/05/30 05:03:37;;;;;;;8.60;5.50;;;;;;;13.89;82.97;99406.83;108692;1280;22429;-58
2022/05/30 05:06:04;;;;;;;10.80;5.90;;;;;;;13.90;82.96;99418.88;108828;1280;22439;-60
2022/05/30 05:08:36;;;;;;;6.00;4.50;;;;;;;13.92;83.30;99441.05;108680;1280;139296;-60
2022/05/30 05:11:36;;;;;;;7.30;4.90;;;;;;;13.92;83.68;99454.74;108541;1278;23582;-59
2022/05/30 05:14:22;;;;;;;7.90;5.00;;;;;;;13.94;83.97;99457.27;108723;1280;138738;-59
2022/05/30 05:17:08;;;;;;;7.20;4.80;;;;;;;13.94;84.39;99456.77;108703;1280;22528;-59
2022/05/30 05:19:37;;;;;;;5.20;4.40;;;;;;;13.93;84.35;99453.54;108741;1279;138285;-59
2022/05/30 05:22:04;;;;;;;7.60;5.00;;;;;;;13.92;84.42;99444.02;108711;1280;22419;-59
2022/05/30 05:24:31;;;;;;;5.90;4.30;;;;;;;13.93;84.73;99445.27;108617;1280;138622;-59
2022/05/30 05:27:17;;;;;;;6.50;4.40;;;;;;;13.93;85.06;99455.67;108884;1280;22475;-59
2022/05/30 05:29:46;;;;;;;5.10;4.60;;;;;;;13.91;85.14;99457.92;108674;1279;22479;-58
2022/05/30 05:32:15;;;;;;;6.30;4.70;;;;;;;13.91;85.26;99456.08;108734;1280;139891;-59
2022/05/30 05:34:42;;;;;;;6.30;4.90;;;;;;;13.90;85.40;99448.57;108724;1280;23404;-59
2022/05/30 05:37:09;;;;;;;7.70;4.40;;;;;;;13.89;85.67;99445.72;108538;1280;138198;-59
2022/05/30 05:39:49;;;;;;;6.00;4.60;;;;;;;13.88;85.84;99444.41;107401;1280;24016;-58
2022/05/30 05:42:16;;;;;;;5.30;4.50;;;;;;;13.87;86.07;99442.49;108728;1280;22596;-59
2022/05/30 05:44:43;;;;;;;5.60;5.00;;;;;;;13.84;86.09;99447.95;108577;1280;138311;-59
2022/05/30 05:47:10;;;;;;;5.80;4.50;;;;;;;13.83;86.21;99452.11;108911;1280;22480;-59
2022/05/30 05:49:38;;;;;;;7.40;4.50;;;;;;;13.83;86.39;99454.97;108753;1280;139578;-59
2022/05/30 05:52:05;;;;;;;5.80;4.70;;;;;;;13.83;86.57;99443.69;108672;1280;22452;-59
2022/05/30 05:54:32;;;;;;;5.80;4.50;;;;;;;13.83;86.69;99444.06;108801;1280;139791;-59
2022/05/30 05:57:00;;;;;;;5.90;5.20;;;;;;;13.84;86.82;99444.51;108793;1280;23266;-59
2022/05/30 05:59:36;;;;;;;7.70;5.20;;;;;;;13.84;87.03;99434.81;108774;1280;22538;-59
2022/05/30 06:02:05;;;;;;;8.50;4.30;;;;;;;13.84;87.19;99425.66;108669;1280;139807;-59
2022/05/30 06:04:32;;;;;;;4.80;4.30;;;;;;;13.86;87.51;99430.88;108883;1280;22447;-59
2022/05/30 06:07:17;;;;;;;5.50;4.70;;;;;;;13.88;87.76;99433.46;108577;1281;139356;-59
2022/05/30 06:10:09;;;;;;;7.20;4.40;;;;;;;13.90;87.92;99433.06;108653;1281;22443;-58
2022/05/30 06:12:42;;;;;;;4.90;4.40;;;;;;;13.90;88.03;99444.45;108726;1280;138226;-59
2022/05/30 06:15:10;;;;;;;4.80;3.90;;;;;;;13.90;88.12;99450.81;108755;1280;22511;-62
2022/05/30 06:17:45;;;;;;;4.20;3.80;;;;;;;13.90;88.26;99453.99;108890;1280;22531;-63
2022/05/30 06:20:14;;;;;;;4.90;3.70;;;;;;;13.89;88.32;99452.73;108649;1280;138675;-62
2022/05/30 06:22:41;;;;;;;6.40;4.10;;;;;;;13.89;88.36;99445.61;108766;1280;22464;-62
2022/05/30 06:25:26;;;;;;;6.00;3.80;;;;;;;13.88;88.37;99435.54;108588;1281;138848;-62
2022/05/30 06:28:08;;;;;;;4.70;4.10;;;;;;;13.86;88.45;99434.61;108749;1280;22415;-62
2022/05/30 06:30:48;;;;;;;6.80;3.80;;;;;;;13.83;88.66;99432.95;108755;1280;138569;-63
2022/05/30 06:33:15;;;;;;;5.60;4.00;;;;;;;13.80;88.59;99418.50;108901;1280;22446;-62
2022/05/30 06:35:46;;;;;;;5.00;3.30;;;;;;;13.77;88.61;99402.95;108763;1279;22431;-62
2022/05/30 06:38:14;;;;;;;3.90;3.50;;;;;;;13.74;88.77;99389.44;108616;1280;139795;-62
2022/05/30 06:40:52;;;;;;;7.90;3.10;;;;;;;13.72;89.03;99376.46;108716;1280;22450;-62
2022/05/30 06:43:19;;;;;;;7.40;4.40;;;;;;;13.70;89.15;99371.52;108781;1279;140710;-63
2022/05/30 06:46:21;;;;;;;4.50;4.10;;;;;;;13.69;89.57;99361.12;108514;1280;22469;-63
2022/05/30 06:49:08;;;;;;;4.20;3.80;;;;;;;13.65;89.55;99352.16;108748;1280;140280;-62
2022/05/30 06:51:44;;;;;;;6.00;3.90;;;;;;;13.60;89.90;99334.70;108748;1280;23409;-63
2022/05/30 06:54:11;;;;;;;4.50;3.90;;;;;;;13.56;89.96;99326.14;108979;1280;23194;-63
2022/05/30 06:58:11;;;;;;;6.20;3.80;;;;;;;13.52;90.30;99324.68;108547;1280;139004;-62
2022/05/30 06:59:27;;;;;;;7.60;3.20;;;;;;;13.47;90.37;99329.08;108667;1280;22619;-63
2022/05/30 07:01:54;;;;;;;5.70;3.50;;;;;;;13.40;90.23;99320.52;108684;1280;139202;-63
2022/05/30 07:04:40;;;;;;;6.80;3.80;;;;;;;13.38;90.24;99318.73;108867;1281;22483;-64
2022/05/30 07:07:38;;;;;;;7.20;3.60;;;;;;;13.35;90.43;99319.13;108796;1280;139161;-62
2022/05/30 07:10:25;;;;;;;4.50;3.40;;;;;;;13.33;90.72;99302.39;108851;1278;22500;-63
2022/05/30 07:12:58;;;;;;;4.80;3.70;;;;;;;13.28;90.57;99303.11;108772;1280;138300;-62
2022/05/30 07:15:26;;;;;;;7.40;3.40;;;;;;;13.29;90.79;99305.52;108225;1280;22602;-61
2022/05/30 07:17:54;;;;;;;5.60;3.50;;;;;;;13.29;90.91;99292.60;104578;1280;22655;-62
2022/05/30 07:20:20;;;;;;;5.80;3.90;;;;;;;13.28;91.03;99295.52;104439;1280;138628;-61
2022/05/30 07:23:07;;;;;;;5.20;4.00;;;;;;;13.27;91.30;99291.63;104569;1281;23107;-62
2022/05/30 07:25:57;;;;;;;7.70;4.70;;;;;;;13.26;91.16;99288.21;104513;1280;138338;-62
2022/05/30 07:28:43;;;;;;;6.40;4.60;;;;;;;13.25;91.30;99281.15;104579;1280;22581;-63
2022/05/30 07:31:29;;;;;;;8.30;4.60;;;;;;;13.22;91.18;99281.23;104504;1280;138804;-62
2022/05/30 07:34:15;;;;;;;5.10;4.60;;;;;;;13.21;91.67;99278.70;104440;1282;25394;-62
2022/05/30 07:37:00;;;;;;;6.70;4.60;;;;;;;13.21;91.73;99273.45;104452;1280;139299;-62
2022/05/30 07:39:38;;;;;;;7.50;4.90;;;;;;;13.21;92.07;99271.54;104677;1280;22596;-62
2022/05/30 07:42:27;;;;;;;6.40;4.70;;;;;;;13.23;92.14;99268.13;104517;1281;24241;-63
2022/05/30 07:45:16;;;;;;;5.20;4.70;;;;;;;13.26;92.35;99264.58;104694;1280;22570;-62
2022/05/30 07:48:01;;;;;;;5.60;4.10;;;;;;;13.27;92.04;99264.77;104707;1280;24630;-62
2022/05/30 07:51:00;;;;;;;4.90;4.40;;;;;;;13.30;92.39;99278.04;107426;1280;22480;-64
2022/05/30 07:53:45;;;;;;;5.30;4.30;;;;;;;13.32;92.16;99287.67;108857;1280;22647;-63
2022/05/30 07:56:32;;;;;;;7.00;4.30;;;;;;;13.36;92.14;99286.02;108608;1280;138878;-64
2022/05/30 07:58:59;;;;;;;5.90;4.30;;;;;;;13.38;92.03;99282.73;108810;1280;23381;-63
2022/05/30 08:01:27;;;;;;;6.00;4.80;;;;;;;13.39;91.74;99296.84;108715;1280;138489;-64
2022/05/30 08:03:54;;;;;;;5.80;4.40;;;;;;;13.41;91.76;99307.38;108805;1280;22435;-65
2022/05/30 08:06:36;;;;;;;6.30;4.30;;;;;;;13.44;91.65;99312.73;108766;1278;139699;-64
2022/05/30 08:09:21;;;;;;;7.30;4.30;;;;;;;13.45;91.15;99306.92;106625;1280;24613;-64
2022/05/30 08:12:14;;;;;;;6.80;4.40;;;;;;;13.45;91.13;99307.42;106800;1280;22936;-64
2022/05/30 08:15:04;;;;;;;8.30;5.10;;;;;;;13.48;90.88;99313.41;106761;1280;24485;-64
2022/05/30 08:17:55;;;;;;;5.30;4.70;;;;;;;13.49;90.88;99301.76;106523;1283;22432;-64
2022/05/30 08:20:23;;;;;;;8.40;5.10;;;;;;;13.52;90.78;99295.52;106689;1280;138711;-64
2022/05/30 08:22:50;;;;;;;5.70;4.90;;;;;;;13.53;91.01;99288.43;106568;1281;22682;-64
2022/05/30 08:25:18;;;;;;;6.80;4.80;;;;;;;13.60;91.01;99285.75;106586;1280;139205;-63
2022/05/30 08:27:46;;;;;;;7.00;5.00;;;;;;;13.62;91.03;99289.52;106688;1280;22427;-64
2022/05/30 08:30:17;;;;;;;9.40;5.20;;;;;;;13.68;91.15;99297.71;106640;1280;23183;-64
2022/05/30 08:32:47;;;;;;;6.50;4.60;;;;;;;13.70;91.15;99305.13;106584;1280;138437;-63
2022/05/30 08:35:32;;;;;;;8.00;5.20;;;;;;;13.72;90.95;99311.85;106713;1283;22455;-63
2022/05/30 08:37:59;;;;;;;9.30;5.50;;;;;;;13.77;90.95;99313.73;106655;1280;141144;-66
2022/05/30 08:43:38;;;;;;;7.70;5.30;;;;;;;13.83;91.00;99313.98;106523;1281;139821;-64
2022/05/30 08:46:47;;;;;;;7.50;5.30;;;;;;;13.86;90.72;99310.54;106493;1280;22890;-64
2022/05/30 08:49:22;;;;;;;8.80;6.20;;;;;;;13.88;90.68;99305.66;106809;1280;138570;-64
2022/05/30 08:52:15;;;;;;;8.20;5.60;;;;;;;13.92;90.65;99309.42;106658;1280;22505;-63
2022/05/30 08:54:53;;;;;;;6.20;4.70;;;;;;;13.97;90.38;99312.45;107340;1280;138507;-63
2022/05/30 08:57:51;;;;;;;9.20;5.80;;;;;;;14.01;90.25;99303.10;104648;1280;25343;-62
2022/05/30 09:00:31;;;;;;;7.50;5.20;;;;;;;14.06;90.10;99306.41;104404;1281;22563;-62
2022/05/30 09:03:30;;;;;;;9.80;5.90;;;;;;;14.10;89.79;99308.90;108563;1280;23472;-62
2022/05/30 09:06:01;;;;;;;10.20;6.20;;;;;;;14.14;89.81;99315.38;108402;1280;22969;-62
2022/05/30 09:08:58;;;;;;;6.80;5.70;;;;;;;14.19;89.61;99314.24;108355;1280;140058;-62
2022/05/30 09:12:02;;;;;;;6.50;5.20;;;;;;;14.26;89.26;99305.55;108604;1280;22429;-63
2022/05/30 09:14:57;;;;;;;12.90;5.50;;;;;;;14.30;89.02;99299.52;108315;1280;139460;-62
2022/05/30 09:17:58;;;;;;;9.00;5.70;;;;;;;14.32;88.80;99292.91;108572;1281;22524;-62
2022/05/30 09:20:24;;;;;;;11.10;5.40;;;;;;;14.38;88.84;99293.21;108388;1280;138800;-63
2022/05/30 09:22:51;;;;;;;7.00;5.30;;;;;;;14.43;89.04;99299.88;108256;1281;22515;-63
2022/05/30 09:28:50;;;;;;;11.70;7.10;;;;;;;14.66;89.32;99304.75;104338;1280;23341;-62
2022/05/30 09:31:41;;;;;;;7.40;5.90;;;;;;;14.79;89.64;99304.39;104470;1280;138533;-62
2022/05/30 09:34:32;;;;;;;10.60;5.80;;;;;;;14.94;89.33;99298.89;104503;1280;24128;-62
2022/05/30 09:37:33;;;;;;;8.80;5.60;;;;;;;15.10;89.00;99289.33;108564;1280;138989;-63
2022/05/30 09:40:08;;;;;;;11.30;6.00;;;;;;;15.22;88.03;99287.91;108693;1281;22457;-62
2022/05/30 09:42:37;;;;;;;6.40;5.00;;;;;;;15.31;87.41;99280.55;108648;1280;140021;-63
2022/05/30 09:45:12;;;;;;;8.50;5.60;;;;;;;15.39;86.50;99273.36;108702;1281;22492;-64
2022/05/30 09:48:13;;;;;;;8.20;5.30;;;;;;;15.45;85.96;99265.36;108660;1281;22420;-64
2022/05/30 09:51:09;;;;;;;10.00;5.80;;;;;;;15.51;85.16;99265.28;108803;1279;22452;-64
2022/05/30 09:53:47;;;;;;;8.90;5.90;;;;;;;15.54;84.82;99258.33;108685;1281;22404;-64
2022/05/30 09:56:16;;;;;;;7.90;5.70;;;;;;;15.58;84.25;99263.09;108580;1280;139378;-64
2022/05/30 09:59:27;;;;;;;9.20;6.00;;;;;;;15.60;84.54;99264.02;108634;1280;22446;-64
2022/05/30 10:02:04;;;;;;;9.00;5.60;;;;;;;15.67;84.73;99260.08;108031;1286;138747;-65
2022/05/30 10:04:39;;;;;;;8.90;5.50;;;;;;;15.71;84.25;99259.30;108092;1286;22484;-65
2022/05/30 10:07:16;;;;;;;8.90;5.70;;;;;;;15.73;83.80;99255.70;108224;1285;138789;-65
2022/05/30 10:10:12;;;;;;;6.70;5.20;;;;;;;15.75;83.83;99254.40;108068;1286;22594;-65
2022/05/30 10:12:44;;;;;;;11.80;5.50;;;;;;;15.77;83.72;99257.88;108211;1285;144291;-64
2022/05/30 10:15:35;;;;;;;8.90;5.30;;;;;;;15.79;83.43;99254.60;108102;1286;22464;-65
2022/05/30 10:18:13;;;;;;;13.00;6.00;;;;;;;15.80;83.04;99251.69;108190;1286;22461;-64
2022/05/30 10:21:22;;;;;;;10.10;5.40;;;;;;;15.77;83.06;99247.66;108188;1286;140191;-65
2022/05/30 10:31:20;;;;;;;9.40;6.50;;;;;;;15.75;83.53;99241.82;108108;1286;138866;-65
2022/05/30 10:34:18;;;;;;;7.60;5.50;;;;;;;15.76;83.62;99238.61;108072;1286;23714;-65
2022/05/30 10:37:23;;;;;;;8.50;5.80;;;;;;;15.78;83.64;99235.40;107759;1290;140295;-64
2022/05/30 10:39:58;;;;;;;12.10;7.10;;;;;;;15.81;83.73;99234.70;107992;1287;24527;-65
2022/05/30 10:42:57;;;;;;;7.50;5.70;;;;;;;15.82;83.64;99237.48;108063;1287;22582;-64
2022/05/30 10:45:36;;;;;;;9.10;6.20;;;;;;;15.85;83.75;99232.27;107322;1291;22609;-64
2022/05/30 10:48:04;;;;;;;14.00;7.10;;;;;;;15.87;83.68;99227.51;107028;1291;139093;-63
2022/05/30 10:50:43;;;;;;;10.10;6.00;;;;;;;15.88;83.68;99227.77;107110;1292;22476;-63
2022/05/30 10:53:51;;;;;;;10.40;6.40;;;;;;;15.91;83.73;99232.27;107102;1292;139225;-63
2022/05/30 10:56:50;;;;;;;10.10;6.30;;;;;;;15.96;83.76;99235.67;107312;1293;22486;-63
2022/05/30 10:59:29;;;;;;;10.20;5.80;;;;;;;15.99;83.73;99228.26;107290;1292;138787;-63
2022/05/30 11:02:05;;;;;;;7.10;5.60;;;;;;;16.03;83.78;99225.13;107277;1292;22554;-64
2022/05/30 11:04:34;;;;;;;11.60;6.20;;;;;;;16.08;83.94;99229.73;107118;1294;140037;-62
2022/05/30 11:07:33;;;;;;;11.30;6.60;;;;;;;16.14;83.72;99226.61;106804;1292;140385;-61
2022/05/30 11:10:06;;;;;;;12.70;6.40;;;;;;;16.20;83.27;99223.91;106550;1298;138368;-62
2022/05/30 11:12:38;;;;;;;16.00;6.60;;;;;;;16.24;83.25;99220.49;106872;1298;22572;-61
2022/05/30 11:15:20;;;;;;;9.80;6.10;;;;;;;16.28;82.74;99214.38;107052;1294;138917;-61
2022/05/30 11:18:39;;;;;;;10.10;6.60;;;;;;;16.26;82.36;99218.36;107228;1293;22499;-61
2022/05/30 11:21:43;;;;;;;12.10;7.10;;;;;;;16.23;82.55;99227.83;107256;1287;138788;-61
2022/05/30 11:24:10;;;;;;;9.40;6.80;;;;;;;16.21;82.63;99227.23;107680;1287;22765;-61
2022/05/30 11:27:08;;;;;;;11.00;6.90;;;;;;;16.20;83.01;99229.79;107913;1287;138459;-61
2022/05/30 11:32:01;;;;;;;11.50;9.40;;;;;;;16.21;83.43;99224.05;101752;1310;545889;-63
2022/05/30 11:34:51;;;;;;;11.90;7.70;;;;;;;16.18;83.80;99216.85;108255;1284;138050;-63
2022/05/30 11:37:29;;;;;;;10.70;6.80;;;;;;;16.19;84.20;99212.49;106831;1293;141056;-64
2022/05/30 11:40:02;;;;;;;12.60;7.50;;;;;;;16.19;84.45;99207.42;107400;1293;22550;-64
2022/05/30 11:42:49;;;;;;;10.30;6.70;;;;;;;16.20;84.80;99198.35;107271;1292;138368;-62
2022/05/30 11:45:43;;;;;;;13.70;7.10;;;;;;;16.21;84.91;99202.63;107363;1292;257585;-64
2022/05/30 11:48:21;;;;;;;13.00;7.40;;;;;;;16.23;85.37;99206.09;107462;1291;138198;-64
2022/05/30 11:51:14;;;;;;;9.40;7.20;;;;;;;16.28;85.55;99201.48;107684;1290;23433;-63
2022/05/30 11:54:06;;;;;;;14.10;8.50;;;;;;;16.32;85.44;99205.61;107559;1290;22482;-65
2022/05/30 11:56:46;;;;;;;13.50;7.00;;;;;;;16.36;85.42;99205.42;107606;1293;23720;-64
2022/05/30 11:59:19;;;;;;;14.30;6.90;;;;;;;16.40;85.30;99205.35;107539;1292;22491;-65
2022/05/30 12:01:46;;;;;;;9.90;7.20;;;;;;;16.45;85.14;99204.27;107420;1292;138332;-65
2022/05/30 12:04:37;;;;;;;11.30;7.00;;;;;;;16.49;84.94;99211.34;107523;1293;22520;-64
2022/05/30 12:07:25;;;;;;;10.10;6.80;;;;;;;16.53;84.68;99209.23;107434;1292;23651;-64
2022/05/30 12:09:58;;;;;;;10.10;7.20;;;;;;;16.57;84.56;99208.61;107140;1292;138305;-65
2022/05/30 12:12:48;;;;;;;13.70;7.10;;;;;;;16.63;84.46;99202.83;106983;1292;139911;-65
2022/05/30 12:15:33;;;;;;;10.70;7.30;;;;;;;16.70;84.08;99204.10;106847;1295;140700;-65
2022/05/30 12:24:15;;;;;;;9.30;7.10;;;;;;;16.90;83.31;99198.33;107162;1293;22454;-65
2022/05/30 12:26:55;;;;;;;10.20;7.40;;;;;;;16.95;82.66;99208.45;107088;1292;139359;-65
2022/05/30 12:29:37;;;;;;;16.40;8.40;;;;;;;17.01;82.16;99208.91;106865;1294;139920;-65
2022/05/30 12:32:36;;;;;;;14.60;7.80;;;;;;;17.05;82.07;99207.90;107046;1294;22554;-63
2022/05/30 12:35:10;;;;;;;9.60;6.80;;;;;;;17.11;81.94;99211.14;107046;1292;140748;-64